Time;durP1;ratioP1;P1;durP2;ratioP2;P2;SDS_P1;SDS_P2;PMS_P1;PMS_P2;Temp;Humidity;BMP_temperature;BMP_pressure;BME280_temperature;BME280_humidity;BME280_pressure;Samples;Min_cycle;Max_cycle;Signal;HPM_P1;HPM_P2
2022/06/28 00:02:09;;;;;;;1.30;0.90;;;21.70;99.90;;;21.98;57.61;101706.00;4850351;28;97029;-73
2022/06/28 00:04:41;;;;;;;0.80;0.70;;;21.70;99.90;;;21.98;57.66;101706.84;4868923;28;97728;-71
2022/06/28 00:07:09;;;;;;;0.97;0.90;;;21.70;99.90;;;21.96;57.71;101710.63;4865482;28;97744;-71
2022/06/28 00:09:35;;;;;;;1.13;0.90;;;21.70;99.90;;;21.94;57.77;101710.72;4875602;28;100552;-71
2022/06/28 00:12:02;;;;;;;2.57;0.90;;;21.60;99.90;;;21.91;57.97;101710.06;4851510;28;99076;-72
2022/06/28 00:17:25;;;;;;;1.83;1.00;;;21.40;99.90;;;21.79;58.29;101702.81;4883523;28;97532;-71
2022/06/28 00:22:38;;;;;;;2.70;2.43;;;21.30;99.90;;;21.69;58.26;101700.72;4982672;23;98225;-71
2022/06/28 00:25:05;;;;;;;1.50;1.20;;;21.20;99.90;;;21.62;58.97;101696.75;4910119;28;97195;-71
2022/06/28 00:27:31;;;;;;;1.30;1.20;;;21.10;99.90;;;21.58;58.92;101703.28;4891652;28;97796;-71
2022/06/28 00:29:58;;;;;;;1.53;1.30;;;21.00;99.90;;;21.55;58.83;101703.47;4907831;28;97807;-71
2022/06/28 00:32:23;;;;;;;1.30;1.20;;;21.00;99.90;;;21.50;59.09;101710.97;4913920;28;97959;-71
2022/06/28 00:34:49;;;;;;;1.20;1.10;;;20.90;99.90;;;21.47;59.16;101713.84;4900424;28;96968;-71
2022/06/28 00:37:32;;;;;;;1.87;1.77;;;20.90;99.90;;;21.45;59.33;101702.34;4874542;28;97095;-71
2022/06/28 00:40:12;;;;;;;1.20;1.10;;;20.90;99.90;;;21.47;59.33;101708.47;4896601;28;97492;-71
2022/06/28 00:42:44;;;;;;;1.27;0.93;;;20.90;99.90;;;21.53;58.92;101697.34;4855711;28;101217;-71
2022/06/28 00:45:11;;;;;;;1.17;1.10;;;21.10;99.90;;;21.64;58.61;101696.63;4898316;28;96912;-72
2022/06/28 00:47:37;;;;;;;1.07;0.93;;;21.30;99.90;;;21.74;58.41;101697.78;4870621;28;97423;-71
2022/06/28 00:50:14;;;;;;;1.00;1.00;;;21.50;99.90;;;21.82;58.12;101694.56;4888490;28;97144;-71
2022/06/28 00:53:01;;;;;;;1.00;0.90;;;21.60;99.90;;;21.88;57.86;101700.41;4871666;28;102281;-71
2022/06/28 00:55:30;;;;;;;0.87;0.87;;;21.70;99.90;;;21.89;58.00;101703.94;4870348;28;97011;-71
2022/06/28 00:57:56;;;;;;;1.10;1.00;;;21.70;99.90;;;21.95;57.86;101700.84;4891394;28;96993;-71
2022/06/28 01:00:24;;;;;;;1.00;0.90;;;21.80;99.90;;;22.02;57.56;101702.16;4867567;28;97433;-72
2022/06/28 01:02:58;;;;;;;1.10;1.00;;;21.90;99.90;;;22.07;57.35;101705.44;4902826;28;97220;-71
2022/06/28 01:05:24;;;;;;;1.20;1.00;;;21.90;99.90;;;22.11;57.24;101698.88;4886412;28;98401;-71
2022/06/28 01:07:52;;;;;;;1.20;1.10;;;22.00;99.90;;;22.15;57.02;101700.41;4903732;28;99292;-71
2022/06/28 01:10:26;;;;;;;1.13;0.80;;;22.00;99.90;;;22.19;56.99;101699.22;4823160;28;100238;-71
2022/06/28 01:13:56;;;;;;;1.23;0.90;;;22.10;99.90;;;22.19;56.58;101698.38;4878085;28;101145;-71
2022/06/28 01:16:28;;;;;;;2.30;0.90;;;22.10;99.90;;;22.12;57.07;101702.41;4885652;28;97162;-71
2022/06/28 01:19:30;;;;;;;1.20;1.10;;;21.90;99.90;;;22.10;57.29;101707.91;4918335;28;97475;-70
2022/06/28 01:21:58;;;;;;;1.63;1.20;;;21.90;99.90;;;22.02;57.21;101712.91;4867358;28;102325;-71
2022/06/28 01:24:41;;;;;;;1.43;0.90;;;21.80;99.90;;;22.01;57.34;101716.56;4906124;28;97841;-71
2022/06/28 01:27:30;;;;;;;1.27;0.93;;;21.70;99.90;;;21.97;57.53;101715.03;4898089;28;98560;-71
2022/06/28 01:30:25;;;;;;;1.30;0.90;;;21.70;99.90;;;21.96;57.45;101719.53;4898928;28;96984;-71
2022/06/28 01:32:59;;;;;;;2.07;1.10;;;21.70;99.90;;;21.94;57.53;101720.59;4885413;28;102209;-71
2022/06/28 01:35:33;;;;;;;0.93;0.90;;;21.70;99.90;;;21.94;57.65;101717.91;4786972;28;97111;-71
2022/06/28 01:38:09;;;;;;;1.13;1.03;;;21.70;99.90;;;21.98;57.47;101722.13;4859951;28;97939;-71
2022/06/28 01:40:55;;;;;;;1.20;1.10;;;21.70;99.90;;;22.04;57.32;101726.22;4828680;28;96997;-71
2022/06/28 01:44:26;;;;;;;1.00;0.90;;;21.80;99.90;;;22.04;57.26;101731.59;4882495;28;97966;-71
2022/06/28 01:47:29;;;;;;;1.00;0.90;;;21.80;99.90;;;21.98;57.20;101727.47;4908312;28;99935;-70
2022/06/28 01:49:55;;;;;;;1.07;1.00;;;21.80;99.90;;;21.92;57.41;101744.03;4863093;28;97321;-71
2022/06/28 01:52:46;;;;;;;0.90;0.70;;;21.70;99.90;;;21.91;57.66;101731.56;4872864;28;97360;-71
2022/06/28 01:55:43;;;;;;;0.90;0.83;;;21.60;99.90;;;21.88;57.43;101737.13;4909391;28;96785;-71
2022/06/28 01:58:31;;;;;;;1.17;1.10;;;21.60;99.90;;;21.80;57.50;101731.41;4870304;28;100289;-72
2022/06/28 02:01:12;;;;;;;3.50;2.30;;;21.40;99.90;;;21.66;57.62;101743.91;4881828;28;96691;-71
2022/06/28 02:04:33;;;;;;;2.17;1.20;;;21.20;99.90;;;21.49;58.37;101752.19;4806244;28;98028;-71
2022/06/28 02:20:28;;;;;;;1.47;1.37;;;21.20;99.90;;;21.54;58.25;101765.31;5769111;23;97837;-71
2022/06/28 02:22:54;;;;;;;1.30;1.20;;;21.20;99.90;;;21.48;58.60;101761.22;4898273;23;97376;-72
2022/06/28 02:25:20;;;;;;;1.30;1.20;;;21.10;99.90;;;21.49;58.68;101757.56;4846148;28;98244;-71
2022/06/28 02:27:49;;;;;;;0.73;0.73;;;21.10;99.90;;;21.49;58.58;101757.56;4876746;28;100647;-71
2022/06/28 02:30:24;;;;;;;1.00;1.00;;;21.10;99.90;;;21.50;58.81;101769.16;4837564;28;96972;-71
2022/06/28 02:33:04;;;;;;;1.70;1.13;;;21.10;99.90;;;21.47;58.62;101761.31;4849111;28;97171;-71
2022/06/28 02:41:17;;;;;;;4.20;3.23;;;20.70;99.90;;;21.18;58.22;101765.81;4834822;28;97371;-71
2022/06/28 02:43:42;;;;;;;2.93;2.57;;;20.50;99.90;;;21.07;59.02;101775.38;4798884;28;97508;-71
2022/06/28 02:46:11;;;;;;;1.80;1.50;;;20.30;99.90;;;21.01;59.86;101778.44;4878166;28;97094;-70
2022/06/28 02:48:37;;;;;;;1.30;1.20;;;20.20;99.90;;;20.96;60.09;101779.66;4873976;28;103807;-70
2022/06/28 02:55:38;;;;;;;1.20;1.10;;;20.10;99.90;;;20.88;60.77;101781.97;4798264;29;97330;-71
2022/06/28 02:58:41;;;;;;;0.87;0.73;;;20.10;99.90;;;20.89;60.66;101779.19;4788804;29;97440;-71
2022/06/28 03:02:09;;;;;;;2.63;2.00;;;20.20;99.90;;;20.88;60.55;101785.50;4798714;29;100304;-71
2022/06/28 03:05:55;;;;;;;3.47;1.70;;;20.20;99.90;;;20.89;60.58;101789.91;4803992;29;99616;-71
2022/06/28 03:08:40;;;;;;;5.00;3.30;;;20.20;99.90;;;20.84;60.58;101797.41;4753695;29;97432;-71
2022/06/28 03:11:39;;;;;;;2.03;1.43;;;20.10;99.90;;;20.82;60.73;101785.88;4823176;29;97099;-71
2022/06/28 03:14:29;;;;;;;1.53;1.33;;;20.10;99.90;;;20.83;60.84;101784.94;4797914;29;101102;-71
2022/06/28 03:16:55;;;;;;;2.10;1.37;;;20.10;99.90;;;20.85;60.88;101791.06;4726334;29;98559;-71
2022/06/28 03:19:40;;;;;;;1.27;1.13;;;20.20;99.90;;;20.90;60.46;101797.00;4755543;29;97024;-71
2022/06/28 03:22:10;;;;;;;3.10;1.90;;;20.30;99.90;;;20.86;60.45;101792.78;4786505;29;98780;-71
2022/06/28 03:24:41;;;;;;;3.17;1.30;;;20.20;99.90;;;20.88;60.56;101798.06;4789212;29;101335;-71
2022/06/28 03:27:07;;;;;;;1.90;1.20;;;20.20;99.90;;;20.86;60.73;101794.63;4795535;29;101112;-71
2022/06/28 03:29:33;;;;;;;2.33;1.17;;;20.20;99.90;;;20.88;60.57;101798.94;4835311;28;96883;-71
2022/06/28 03:31:59;;;;;;;1.37;1.27;;;20.20;99.90;;;20.90;60.54;101813.09;4894196;28;96783;-71
2022/06/28 03:34:25;;;;;;;2.20;1.33;;;20.30;99.90;;;20.93;60.39;101812.03;4867774;28;97507;-71
2022/06/28 03:36:51;;;;;;;1.27;0.93;;;20.30;99.90;;;20.99;60.11;101811.69;4867218;28;99388;-71
2022/06/28 03:39:18;;;;;;;1.73;1.47;;;20.40;99.90;;;21.04;60.09;101815.81;4857825;28;96785;-71
2022/06/28 03:41:46;;;;;;;2.43;1.30;;;20.50;99.90;;;21.09;59.87;101821.75;4876988;28;96710;-71
2022/06/28 03:44:13;;;;;;;1.27;0.97;;;20.60;99.90;;;21.17;59.85;101817.75;4849736;28;98270;-73
2022/06/28 03:46:46;;;;;;;2.00;1.23;;;20.70;99.90;;;21.25;59.27;101820.81;4802578;28;97494;-71
2022/06/28 03:49:26;;;;;;;1.60;1.10;;;20.90;99.90;;;21.36;59.16;101815.66;4790681;28;97150;-71
2022/06/28 03:51:55;;;;;;;1.60;1.30;;;21.00;99.90;;;21.46;58.61;101821.31;4854024;28;97940;-70
2022/06/28 03:54:59;;;;;;;1.70;1.00;;;21.20;99.90;;;21.58;58.41;101816.03;4890792;28;100550;-71
2022/06/28 03:57:28;;;;;;;1.40;1.13;;;21.40;99.90;;;21.63;58.21;101815.75;4865216;28;101735;-71
2022/06/28 03:59:56;;;;;;;1.20;1.10;;;21.50;99.90;;;21.64;58.01;101822.84;4884099;28;97096;-71
2022/06/28 04:02:25;;;;;;;1.47;1.03;;;21.50;99.90;;;21.59;57.99;101828.50;4865972;28;97154;-71
2022/06/28 04:04:52;;;;;;;4.27;3.13;;;21.30;99.90;;;21.55;57.87;101832.31;4887148;28;97527;-71
2022/06/28 04:08:10;;;;;;;1.37;1.23;;;21.20;99.90;;;21.51;58.43;101841.53;4840489;28;97237;-71
2022/06/28 04:11:14;;;;;;;3.87;2.37;;;21.00;99.90;;;21.41;58.40;101845.78;4809495;28;98579;-71
2022/06/28 04:13:52;;;;;;;1.90;1.73;;;20.90;99.90;;;21.26;58.90;101846.69;4870524;28;97983;-71
2022/06/28 04:16:26;;;;;;;4.23;2.90;;;20.60;99.90;;;21.16;58.94;101841.03;4830017;28;96941;-71
2022/06/28 04:18:57;;;;;;;3.23;2.93;;;20.50;99.90;;;21.08;59.46;101849.53;4840019;28;97986;-71
2022/06/28 04:21:39;;;;;;;2.30;1.47;;;20.30;99.90;;;21.06;59.92;101846.06;4846945;28;97441;-71
2022/06/28 04:24:05;;;;;;;2.37;1.50;;;20.30;99.90;;;21.01;60.03;101848.19;4885769;28;97595;-71
2022/06/28 04:26:31;;;;;;;2.63;2.23;;;20.30;99.90;;;20.98;59.87;101842.16;4873322;28;96960;-71
2022/06/28 04:28:57;;;;;;;2.80;1.83;;;20.30;99.90;;;20.96;60.14;101844.03;4894753;28;97328;-71
2022/06/28 04:31:23;;;;;;;1.67;1.47;;;20.30;99.90;;;20.98;60.16;101845.69;4871397;28;97216;-71
2022/06/28 04:33:49;;;;;;;1.93;1.73;;;20.30;99.90;;;21.02;59.83;101849.91;4874483;28;97865;-71
2022/06/28 04:36:15;;;;;;;2.73;1.73;;;20.40;99.90;;;21.08;59.88;101849.53;4872666;28;99291;-71
2022/06/28 04:38:41;;;;;;;2.97;2.20;;;20.50;99.90;;;21.10;59.81;101852.97;4891113;28;98979;-71
2022/06/28 04:41:07;;;;;;;4.47;2.97;;;20.60;99.90;;;21.12;59.61;101862.75;4852886;28;97874;-71
2022/06/28 04:43:34;;;;;;;2.93;2.50;;;20.60;99.90;;;21.07;59.52;101842.44;4884884;28;96993;-71
2022/06/28 04:46:06;;;;;;;2.10;1.37;;;20.50;99.90;;;21.07;59.73;101842.44;4856538;28;97815;-71
2022/06/28 04:53:58;;;;;;;1.30;1.20;;;20.50;99.90;;;21.11;59.54;101843.09;4882961;28;97745;-71
2022/06/28 04:56:30;;;;;;;1.83;1.40;;;20.50;99.90;;;21.20;59.40;101841.69;4844562;28;98652;-71
2022/06/28 05:02:13;;;;;;;1.90;1.43;;;20.80;99.90;;;21.36;58.96;101837.13;4867799;28;96984;-71
2022/06/28 05:04:42;;;;;;;1.43;1.30;;;21.00;99.90;;;21.42;58.98;101835.91;4857867;28;97071;-71
2022/06/28 05:10:53;;;;;;;1.57;1.20;;;21.30;99.90;;;21.65;57.96;101843.34;4885841;28;96685;-71
2022/06/28 05:14:10;;;;;;;1.30;1.17;;;21.50;99.90;;;21.75;57.62;101833.75;4857395;28;97281;-71
2022/06/28 05:16:59;;;;;;;1.30;1.10;;;21.60;99.90;;;21.84;57.34;101827.78;4841724;28;97847;-71
2022/06/28 05:20:28;;;;;;;1.87;1.17;;;21.80;99.90;;;21.93;57.04;101831.69;4818496;28;97530;-71
2022/06/28 05:23:00;;;;;;;1.00;0.90;;;21.90;99.90;;;21.96;56.90;101831.50;4906254;23;103066;-71
2022/06/28 05:25:56;;;;;;;2.27;1.73;;;21.90;99.90;;;21.96;56.75;101836.88;4893104;23;97589;-71
2022/06/28 05:28:43;;;;;;;1.80;1.40;;;21.80;99.90;;;21.88;56.67;101840.06;4879102;28;97665;-71
2022/06/28 05:31:28;;;;;;;1.93;1.33;;;21.70;99.90;;;21.91;56.91;101841.69;4867490;28;98997;-71
2022/06/28 05:34:42;;;;;;;1.37;1.20;;;21.70;99.90;;;21.96;56.71;101842.25;4793331;28;99991;-71
2022/06/28 05:37:30;;;;;;;4.73;4.13;;;21.80;99.90;;;21.93;56.60;101843.31;4789986;28;97178;-71
2022/06/28 05:47:32;;;;;;;10.97;4.70;;;21.60;99.90;;;21.84;54.57;101846.56;4906990;22;116539;-71
2022/06/28 05:50:19;;;;;;;5.97;2.83;;;21.60;99.90;;;21.75;56.40;101838.28;4848095;28;97293;-71
2022/06/28 05:52:47;;;;;;;5.83;4.70;;;21.40;99.90;;;21.65;57.02;101837.97;4876155;28;96703;-71
2022/06/28 05:55:14;;;;;;;6.30;5.27;;;21.20;99.90;;;21.43;55.24;101838.50;4842048;28;98830;-71
2022/06/28 05:57:40;;;;;;;1.67;1.40;;;21.00;99.90;;;21.42;58.31;101823.34;4786909;28;97608;-71
2022/06/28 06:00:33;;;;;;;1.40;1.30;;;20.90;99.90;;;21.35;56.68;101833.59;4857683;28;98274;-71
2022/06/28 06:03:16;;;;;;;3.33;1.93;;;20.90;99.90;;;21.30;58.68;101834.84;4876914;28;100516;-71
2022/06/28 06:05:58;;;;;;;1.50;1.17;;;20.80;99.90;;;21.43;58.54;101837.63;4884829;28;100980;-72
2022/06/28 06:08:23;;;;;;;1.50;1.20;;;21.10;99.90;;;21.54;58.05;101841.34;4896958;28;97512;-71
2022/06/28 06:11:00;;;;;;;2.03;1.40;;;21.30;99.90;;;21.64;57.70;101836.25;4822976;28;97540;-71
2022/06/28 06:13:26;;;;;;;1.80;1.27;;;21.50;99.90;;;21.73;57.51;101840.19;4823099;28;98044;-71
2022/06/28 06:15:55;;;;;;;2.80;1.27;;;21.60;99.90;;;21.82;57.11;101839.59;4860916;28;97026;-71
2022/06/28 06:18:23;;;;;;;2.03;1.47;;;21.70;99.90;;;21.91;56.93;101847.06;4821501;28;97041;-71
2022/06/28 06:20:53;;;;;;;2.23;1.97;;;21.90;99.90;;;21.93;56.93;101843.31;4839609;28;97464;-72
2022/06/28 06:23:27;;;;;;;2.43;1.37;;;21.80;99.90;;;21.95;56.52;101843.22;4849041;28;97683;-71
2022/06/28 06:26:05;;;;;;;2.27;1.20;;;21.80;99.90;;;21.97;56.54;101841.28;4828109;28;99784;-71
2022/06/28 06:36:23;;;;;;;11.33;7.13;;;21.40;99.90;;;21.57;55.63;101856.41;4991294;22;97751;-71
2022/06/28 06:38:50;;;;;;;8.97;6.53;;;21.10;99.90;;;21.53;57.83;101849.50;4912225;28;97949;-71
2022/06/28 06:41:16;;;;;;;2.23;1.47;;;21.00;99.90;;;21.57;57.86;101851.91;4886922;28;97406;-71
2022/06/28 06:43:52;;;;;;;2.63;1.40;;;21.10;99.90;;;21.67;57.34;101847.66;4893112;28;97583;-71
2022/06/28 06:46:18;;;;;;;3.90;3.53;;;21.40;99.90;;;21.73;55.97;101851.78;4893651;28;98265;-70
2022/06/28 06:48:44;;;;;;;7.17;6.37;;;21.50;99.90;;;21.67;54.76;101850.34;4900452;28;97807;-71
2022/06/28 06:51:10;;;;;;;7.77;6.07;;;21.40;99.90;;;21.57;55.90;101846.53;4885994;28;98687;-72
2022/06/28 06:53:36;;;;;;;1.90;1.63;;;21.20;99.90;;;21.61;57.47;101850.75;4888743;28;103472;-71
2022/06/28 06:56:03;;;;;;;2.67;1.70;;;21.20;99.90;;;21.69;57.47;101843.06;4878766;28;97457;-71
2022/06/28 06:58:28;;;;;;;1.63;1.50;;;21.40;99.90;;;21.76;57.09;101846.22;4871927;28;98788;-71
2022/06/28 07:00:55;;;;;;;2.80;1.50;;;21.60;99.90;;;21.79;57.01;101851.38;4894523;28;97724;-71
2022/06/28 07:03:21;;;;;;;2.30;1.67;;;21.60;99.90;;;21.86;56.79;101858.09;4887474;28;96979;-71
2022/06/28 07:05:47;;;;;;;2.40;1.63;;;21.70;99.90;;;21.91;56.78;101852.44;4892173;28;100218;-71
2022/06/28 07:08:13;;;;;;;1.80;1.60;;;21.80;99.90;;;21.97;56.61;101854.72;4889927;28;98915;-71
2022/06/28 07:10:39;;;;;;;1.87;1.20;;;21.90;99.90;;;22.03;56.22;101848.97;4894933;28;97907;-71
2022/06/28 07:13:05;;;;;;;4.37;1.57;;;22.00;99.90;;;22.10;56.06;101849.44;4879772;28;99762;-71
2022/06/28 07:15:31;;;;;;;2.10;1.60;;;22.10;99.90;;;22.14;56.05;101851.84;4895852;28;99024;-71
2022/06/28 07:20:34;;;;;;;5.83;2.60;;;22.10;99.90;;;22.21;55.47;101846.91;4950941;23;116222;-71
2022/06/28 07:23:00;;;;;;;2.07;1.70;;;22.20;99.90;;;22.23;55.87;101839.63;4889741;28;97146;-71
2022/06/28 07:25:26;;;;;;;1.63;1.53;;;22.10;99.90;;;22.23;55.89;101839.63;4872597;28;97297;-71
2022/06/28 07:27:52;;;;;;;5.87;3.33;;;22.10;99.90;;;22.22;55.57;101830.69;4874329;28;98280;-71
2022/06/28 07:33:47;;;;;;;6.13;4.20;;;22.00;99.90;;;22.12;53.55;101839.44;4879321;28;97207;-71
2022/06/28 07:37:12;;;;;;;2.80;1.90;;;21.90;99.90;;;22.06;56.29;101840.72;4897414;28;97035;-71
2022/06/28 07:39:38;;;;;;;1.90;1.50;;;21.80;99.90;;;22.03;56.40;101846.28;4831372;28;100553;-71
2022/06/28 07:42:15;;;;;;;5.07;3.23;;;21.80;99.90;;;22.01;55.69;101850.88;4878829;28;97437;-72
2022/06/28 07:44:41;;;;;;;1.90;1.60;;;21.70;99.90;;;21.93;56.44;101837.06;4826778;28;100400;-71
2022/06/28 07:47:13;;;;;;;2.20;1.70;;;21.60;99.90;;;21.99;56.52;101847.44;4833963;28;100683;-71
2022/06/28 07:52:37;;;;;;;7.87;4.20;;;21.80;99.90;;;22.00;54.35;101843.78;4835352;28;97582;-71
2022/06/28 07:55:09;;;;;;;5.87;4.10;;;21.80;99.90;;;21.92;50.99;101835.34;4879615;28;97425;-70
2022/06/28 07:57:38;;;;;;;6.77;4.57;;;21.70;99.90;;;21.73;50.82;101833.00;4884059;28;99738;-71
2022/06/28 08:00:09;;;;;;;8.67;5.03;;;21.40;99.90;;;21.76;55.15;101834.63;4863657;28;103894;-71
2022/06/28 08:02:43;;;;;;;5.23;3.20;;;21.40;99.90;;;21.73;55.46;101834.81;4879565;28;97024;-70
2022/06/28 08:05:14;;;;;;;1.97;1.60;;;21.40;99.90;;;21.70;56.74;101830.50;4816982;28;97350;-70
2022/06/28 08:07:43;;;;;;;9.13;5.57;;;21.40;99.90;;;21.61;56.49;101825.72;4835670;23;101848;-71
2022/06/28 08:10:10;;;;;;;1.97;1.77;;;21.30;99.90;;;21.71;57.24;101831.38;4853137;28;97684;-71
2022/06/28 08:12:37;;;;;;;6.13;4.57;;;21.50;99.90;;;21.77;55.09;101828.28;4879521;28;97143;-70
2022/06/28 08:15:06;;;;;;;3.00;1.70;;;21.60;99.90;;;21.86;56.86;101830.38;4857711;28;100462;-71
2022/06/28 08:17:32;;;;;;;1.80;1.70;;;21.70;99.90;;;21.94;56.58;101822.69;4851919;28;99815;-71
2022/06/28 08:19:57;;;;;;;3.10;2.03;;;21.90;99.90;;;21.97;55.74;101823.34;4888455;28;97937;-71
2022/06/28 08:22:28;;;;;;;2.27;1.50;;;21.90;99.90;;;22.04;56.19;101818.44;4863704;28;98127;-71
2022/06/28 08:24:54;;;;;;;1.93;1.73;;;22.00;99.90;;;22.09;55.82;101815.47;4884021;28;97540;-71
2022/06/28 08:27:20;;;;;;;2.70;2.07;;;22.10;99.90;;;22.17;55.11;101818.53;4885476;28;97769;-71
2022/06/28 08:29:53;;;;;;;3.13;1.73;;;22.10;99.90;;;22.16;55.47;101812.28;4884855;28;97791;-71
2022/06/28 08:32:44;;;;;;;2.73;1.80;;;22.20;99.90;;;22.26;55.20;101817.91;4886775;28;98300;-71
2022/06/28 08:35:13;;;;;;;3.93;3.03;;;22.20;99.90;;;22.25;55.31;101800.06;5051321;23;106922;-71
2022/06/28 08:42:37;;;;;;;8.13;2.83;;;22.20;99.90;;;22.30;54.97;101797.09;5003152;23;99621;-72
2022/06/28 08:46:20;;;;;;;3.90;2.40;;;22.20;99.90;;;22.29;55.29;101801.59;4835471;28;97642;-72
2022/06/28 08:49:20;;;;;;;6.10;2.60;;;22.20;99.90;;;22.25;50.68;101803.59;4813550;28;103054;-70
2022/06/28 08:52:30;;;;;;;7.63;4.20;;;22.20;99.90;;;22.17;52.83;101808.66;4843329;28;100580;-70
2022/06/28 08:55:01;;;;;;;2.40;1.70;;;22.00;99.90;;;22.09;55.49;101810.97;4819800;28;97432;-71
2022/06/28 08:57:32;;;;;;;1.90;1.70;;;21.90;99.90;;;22.14;55.64;101806.16;4841322;28;98606;-73
2022/06/28 09:01:03;;;;;;;3.17;2.50;;;22.00;99.90;;;22.20;54.89;101803.06;4807413;28;98308;-70
2022/06/28 09:03:18;;;;;;;4.87;3.00;;;22.10;99.90;;;22.23;52.00;101794.78;4830265;28;101402;-73
2022/06/28 09:05:46;;;;;;;1.77;1.60;;;22.10;99.90;;;22.25;55.42;101786.63;4790227;28;97289;-71
2022/06/28 09:08:18;;;;;;;4.33;2.33;;;22.20;99.90;;;22.26;54.58;101781.13;4836542;28;97952;-71
2022/06/28 09:10:47;;;;;;;1.73;1.37;;;22.20;99.90;;;22.32;55.34;101779.03;4806560;28;101940;-71
2022/06/28 09:13:16;;;;;;;8.07;2.90;;;22.30;99.90;;;22.33;51.04;101773.53;4841923;28;98023;-71
2022/06/28 09:16:30;;;;;;;3.00;1.87;;;22.30;99.90;;;22.39;54.97;101780.31;4827690;28;97381;-70
2022/06/28 09:18:56;;;;;;;4.70;2.90;;;22.30;99.90;;;22.39;54.15;101770.44;4844334;28;97076;-70
2022/06/28 09:21:22;;;;;;;1.77;1.43;;;22.40;99.90;;;22.35;55.06;101776.13;4833188;28;100599;-70
2022/06/28 09:24:00;;;;;;;3.67;2.37;;;22.40;99.90;;;22.44;51.48;101770.13;4856951;28;98642;-70
2022/06/28 09:26:27;;;;;;;5.50;2.20;;;22.40;99.90;;;22.43;50.92;101771.09;4852073;28;97978;-71
2022/06/28 09:28:55;;;;;;;5.30;2.17;;;22.40;99.90;;;22.45;54.33;101763.78;4831442;28;99076;-71
2022/06/28 09:31:35;;;;;;;2.17;1.50;;;22.30;99.90;;;22.38;54.95;101770.53;4832793;28;99866;-71
2022/06/28 09:34:01;;;;;;;2.27;1.57;;;22.40;99.90;;;22.43;54.04;101763.03;4847276;28;99910;-71
2022/06/28 09:36:29;;;;;;;1.60;1.50;;;22.40;99.90;;;22.46;54.62;101765.50;4868525;28;97851;-71
2022/06/28 09:39:18;;;;;;;1.70;1.30;;;22.40;99.90;;;22.52;54.60;101765.06;4839832;28;97590;-71
2022/06/28 09:41:48;;;;;;;3.87;2.00;;;22.50;99.90;;;22.53;53.58;101762.28;4862592;28;101657;-71
2022/06/28 09:44:20;;;;;;;1.77;1.30;;;22.50;99.90;;;22.54;54.43;101757.75;4860492;28;97831;-71
2022/06/28 09:46:50;;;;;;;1.60;1.30;;;22.50;99.90;;;22.57;54.15;101760.28;4852858;28;97880;-71
2022/06/28 09:49:21;;;;;;;4.13;1.90;;;22.50;99.90;;;22.60;53.81;101753.81;4863803;28;97486;-71
2022/06/28 09:51:48;;;;;;;4.53;1.77;;;22.60;99.90;;;22.62;47.48;101754.56;4864630;28;97658;-71
2022/06/28 09:54:14;;;;;;;2.47;1.47;;;22.60;99.90;;;22.60;53.74;101751.97;4860529;28;98597;-71
2022/06/28 09:56:54;;;;;;;2.10;1.70;;;22.50;99.90;;;22.59;54.28;101754.78;4863831;28;98188;-71
2022/06/28 09:59:27;;;;;;;1.50;1.40;;;22.50;99.90;;;22.59;54.09;101752.09;4872595;28;97640;-71
2022/06/28 10:01:55;;;;;;;2.03;1.30;;;22.60;99.90;;;22.59;54.24;101744.88;4862928;28;97991;-71
2022/06/28 10:04:29;;;;;;;1.90;1.33;;;22.60;99.90;;;22.56;54.44;101742.38;4860197;28;97708;-71
2022/06/28 10:06:55;;;;;;;2.33;1.40;;;22.60;99.90;;;22.62;52.49;101739.28;4875305;28;97285;-71
2022/06/28 10:09:21;;;;;;;1.73;1.17;;;22.60;99.90;;;22.53;54.32;101734.53;4858738;28;97272;-71
2022/06/28 10:17:59;;;;;;;3.00;1.37;;;22.60;99.90;;;22.61;54.18;101721.44;4878564;28;97140;-71
2022/06/28 10:20:35;;;;;;;1.80;1.37;;;22.60;99.90;;;22.57;54.19;101717.25;4876556;28;101070;-71
2022/06/28 10:23:24;;;;;;;2.17;1.10;;;22.60;99.90;;;22.56;54.10;101718.19;4883669;28;99616;-71
2022/06/28 10:26:08;;;;;;;1.30;1.20;;;22.70;99.90;;;22.56;54.11;101712.81;4876916;28;100264;-71
2022/06/28 10:29:07;;;;;;;1.53;1.17;;;22.60;99.90;;;22.67;53.15;101707.56;4882891;28;96772;-71
2022/06/28 10:33:03;;;;;;;2.00;1.23;;;22.70;99.90;;;22.66;53.78;101708.53;4839586;28;97227;-71
2022/06/28 10:36:12;;;;;;;2.13;1.00;;;22.70;99.90;;;22.69;53.99;101694.84;4902685;28;98437;-71
2022/06/28 10:39:08;;;;;;;1.00;0.90;;;22.70;99.90;;;22.58;54.18;101694.75;4918010;28;99856;-71
2022/06/28 10:41:55;;;;;;;1.45;1.00;;;22.70;99.90;;;22.54;54.23;101688.72;4874777;28;96924;-71
2022/06/28 10:44:45;;;;;;;1.33;1.23;;;22.70;99.90;;;22.61;54.24;101683.78;4900533;28;97244;-70
2022/06/28 10:47:15;;;;;;;1.03;0.97;;;22.70;99.90;;;22.62;54.17;101681.97;4909385;28;101285;-71
2022/06/28 10:50:17;;;;;;;1.53;1.20;;;22.70;99.90;;;22.65;54.14;101685.28;4889213;28;99920;-71
2022/06/28 10:59:09;;;;;;;2.90;1.57;;;22.80;99.90;;;22.66;54.08;101681.63;5686347;23;97381;-71
2022/06/28 11:01:44;;;;;;;1.98;1.58;;;22.80;99.90;;;22.70;53.93;101677.75;4891318;28;97545;-71
2022/06/28 11:04:19;;;;;;;2.80;1.23;;;22.80;99.90;;;22.83;48.36;101673.25;4900555;28;97367;-71
2022/06/28 11:07:14;;;;;;;1.38;1.00;;;22.90;99.90;;;22.79;53.55;101671.72;4892305;28;97140;-71
2022/06/28 11:10:34;;;;;;;1.73;0.85;;;22.90;99.90;;;22.78;53.42;101674.53;4865244;28;102640;-70
2022/06/28 11:13:27;;;;;;;0.90;0.90;;;22.90;99.90;;;22.59;54.07;101676.81;4841538;28;101547;-70
2022/06/28 11:16:09;;;;;;;2.00;1.05;;;22.80;99.90;;;22.74;50.97;101663.13;4953157;23;97236;-71
2022/06/28 11:48:34;;;;;;;1.67;0.95;;;22.80;99.90;;;22.60;53.64;101635.50;5071225;23;97211;-71
2022/06/28 11:58:38;;;;;;;3.03;1.07;;;22.70;99.90;;;22.80;46.20;101625.03;5380260;23;98757;-71
2022/06/28 12:01:16;;;;;;;1.00;0.80;;;22.80;96.70;;;22.66;52.70;101633.22;4852500;28;101987;-71
2022/06/28 12:03:42;;;;;;;0.80;0.77;;;22.80;99.90;;;22.65;53.14;101620.75;4854941;28;97586;-71
2022/06/28 12:06:24;;;;;;;1.00;0.80;;;22.70;99.90;;;22.69;50.84;101619.56;4880228;28;98563;-71
2022/06/28 12:09:06;;;;;;;3.42;1.10;;;22.70;99.90;;;22.86;46.89;101610.34;4865944;28;102506;-70
2022/06/28 12:11:44;;;;;;;1.53;0.93;;;22.80;99.90;;;22.85;51.15;101605.91;4997122;23;98845;-70
2022/06/28 12:14:19;;;;;;;2.58;1.20;;;22.80;99.90;;;22.89;48.00;101606.56;4887491;28;97331;-71
2022/06/28 12:27:06;;;;;;;0.90;0.80;;;22.80;99.90;;;22.64;53.62;101592.16;4932660;28;98521;-71
2022/06/28 12:29:32;;;;;;;1.10;0.80;;;22.70;99.90;;;22.65;53.52;101577.72;4910334;28;97712;-71
2022/06/28 12:32:09;;;;;;;1.40;1.00;;;22.80;99.90;;;22.65;53.39;101580.41;4904937;28;98477;-71
2022/06/28 12:34:40;;;;;;;0.80;0.80;;;22.80;99.90;;;22.69;53.23;101589.97;4923818;28;100463;-70
2022/06/28 12:37:12;;;;;;;3.00;0.73;;;22.80;99.90;;;22.81;52.77;101591.78;4936656;28;97461;-71
2022/06/28 12:39:38;;;;;;;0.70;0.70;;;22.90;99.90;;;22.79;52.60;101585.66;4921005;28;97194;-70
2022/06/28 12:42:05;;;;;;;2.38;1.10;;;22.90;99.90;;;23.03;38.46;101588.44;4912814;28;100526;-71
2022/06/28 12:44:35;;;;;;;4.70;1.00;;;23.10;93.00;;;23.29;44.00;101578.44;5007484;23;97466;-71
2022/06/28 12:47:06;;;;;;;1.88;0.93;;;23.40;95.90;;;23.55;47.32;101572.91;4900683;28;96662;-70
2022/06/28 13:02:45;;;;;;;1.92;1.20;;;23.10;99.90;;;23.00;50.52;101564.47;5097626;23;98340;-70
2022/06/28 13:05:42;;;;;;;1.40;0.80;;;23.10;99.90;;;22.93;52.04;101570.38;4761542;28;101531;-70
2022/06/28 13:14:12;;;;;;;0.73;0.70;;;23.00;99.90;;;22.95;51.90;101554.97;5501860;23;98596;-71
2022/06/28 13:16:54;;;;;;;3.78;1.10;;;23.00;99.90;;;23.00;45.86;101552.81;5046692;23;103532;-71
2022/06/28 14:15:28;;;;;;;2.15;0.73;;;23.10;99.90;;;23.08;51.03;101480.47;4868165;28;97818;-71
2022/06/28 14:18:39;;;;;;;1.58;0.90;;;23.10;99.90;;;23.01;50.95;101481.91;4836105;28;101845;-72